Terminal Aerodrome Forecast
Issued by NWS

Current Version | Previous Version | Text Only | Print | Product List | Glossary On
Versions: 1 2 3 4 5 6 7 8 9 10 11 12 13
000
FTUS42 KTAE 251128
TAFECP
TAF
KECP 251128Z 2512/2612 06004KT P6SM VCSH SCT025
      TEMPO 2512/2514 BKN025
     FM251600 16010KT P6SM VCTS SCT025CB BKN050
      TEMPO 2518/2522 VRB15G25KT 3SM -TSRA BKN030CB
     FM260900 08005KT P6SM BKN025=

USA.gov is the U.S. government's official web portal to all federal, state and local government web resources and services.